sensor_id;sensor_type;location;lat;lon;timestamp;temperature;humidity
42615;DHT22;28754;47.700;7.924;2022-07-23T00:00:33;19.80;99.90
42615;DHT22;28754;47.700;7.924;2022-07-23T00:03:20;19.70;99.90
42615;DHT22;28754;47.700;7.924;2022-07-23T00:06:06;19.70;99.90
42615;DHT22;28754;47.700;7.924;2022-07-23T00:08:53;19.70;99.90
42615;DHT22;28754;47.700;7.924;2022-07-23T00:11:40;19.80;99.90
42615;DHT22;28754;47.700;7.924;2022-07-23T00:14:27;19.90;99.90
42615;DHT22;28754;47.700;7.924;2022-07-23T00:17:13;20.00;99.90
42615;DHT22;28754;47.700;7.924;2022-07-23T00:20:00;20.20;99.90
42615;DHT22;28754;47.700;7.924;2022-07-23T00:22:52;20.30;99.90
42615;DHT22;28754;47.700;7.924;2022-07-23T00:25:40;20.40;99.90
42615;DHT22;28754;47.700;7.924;2022-07-23T00:28:27;20.40;99.90
42615;DHT22;28754;47.700;7.924;2022-07-23T00:31:14;20.40;99.90
42615;DHT22;28754;47.700;7.924;2022-07-23T00:34:00;20.50;99.90
42615;DHT22;28754;47.700;7.924;2022-07-23T00:36:47;20.60;99.90
42615;DHT22;28754;47.700;7.924;2022-07-23T00:39:34;20.60;99.90
42615;DHT22;28754;47.700;7.924;2022-07-23T00:42:22;20.50;99.90
42615;DHT22;28754;47.700;7.924;2022-07-23T00:45:09;20.50;99.90
42615;DHT22;28754;47.700;7.924;2022-07-23T00:47:56;20.30;99.90
42615;DHT22;28754;47.700;7.924;2022-07-23T00:50:43;20.20;99.90
42615;DHT22;28754;47.700;7.924;2022-07-23T00:53:30;20.30;99.90
42615;DHT22;28754;47.700;7.924;2022-07-23T00:56:17;20.20;99.90
42615;DHT22;28754;47.700;7.924;2022-07-23T00:59:05;20.10;99.90
42615;DHT22;28754;47.700;7.924;2022-07-23T01:01:53;20.10;99.90
42615;DHT22;28754;47.700;7.924;2022-07-23T01:04:40;20.10;99.90
42615;DHT22;28754;47.700;7.924;2022-07-23T01:07:27;20.20;99.90
42615;DHT22;28754;47.700;7.924;2022-07-23T01:10:15;20.10;99.90
42615;DHT22;28754;47.700;7.924;2022-07-23T01:13:22;20.20;99.90
42615;DHT22;28754;47.700;7.924;2022-07-23T01:16:08;20.30;99.90
42615;DHT22;28754;47.700;7.924;2022-07-23T01:18:55;20.30;99.90
42615;DHT22;28754;47.700;7.924;2022-07-23T01:21:48;20.20;99.90
42615;DHT22;28754;47.700;7.924;2022-07-23T01:24:36;20.10;99.90
42615;DHT22;28754;47.700;7.924;2022-07-23T01:27:25;20.00;99.90
42615;DHT22;28754;47.700;7.924;2022-07-23T01:30:18;20.00;99.90
42615;DHT22;28754;47.700;7.924;2022-07-23T01:33:06;20.00;99.90
42615;DHT22;28754;47.700;7.924;2022-07-23T01:35:52;20.00;99.90
42615;DHT22;28754;47.700;7.924;2022-07-23T01:38:43;20.10;99.90
42615;DHT22;28754;47.700;7.924;2022-07-23T01:41:30;20.10;99.90
42615;DHT22;28754;47.700;7.924;2022-07-23T01:44:17;20.10;99.90
42615;DHT22;28754;47.700;7.924;2022-07-23T01:47:04;20.00;99.90
42615;DHT22;28754;47.700;7.924;2022-07-23T01:49:51;19.90;99.90
42615;DHT22;28754;47.700;7.924;2022-07-23T01:53:04;19.80;99.90
42615;DHT22;28754;47.700;7.924;2022-07-23T01:55:51;19.90;99.90
42615;DHT22;28754;47.700;7.924;2022-07-23T01:58:37;19.90;99.90
42615;DHT22;28754;47.700;7.924;2022-07-23T02:01:24;20.00;99.90
42615;DHT22;28754;47.700;7.924;2022-07-23T02:04:11;20.00;99.90
42615;DHT22;28754;47.700;7.924;2022-07-23T02:06:58;20.00;99.90
42615;DHT22;28754;47.700;7.924;2022-07-23T02:09:46;19.90;99.90
42615;DHT22;28754;47.700;7.924;2022-07-23T02:12:33;19.80;99.90
42615;DHT22;28754;47.700;7.924;2022-07-23T02:15:20;19.60;99.90
42615;DHT22;28754;47.700;7.924;2022-07-23T02:18:07;19.50;99.90
42615;DHT22;28754;47.700;7.924;2022-07-23T02:20:54;19.50;99.90
42615;DHT22;28754;47.700;7.924;2022-07-23T02:23:41;19.50;99.90
42615;DHT22;28754;47.700;7.924;2022-07-23T02:26:27;19.40;99.90
42615;DHT22;28754;47.700;7.924;2022-07-23T02:29:14;19.40;99.90
42615;DHT22;28754;47.700;7.924;2022-07-23T02:32:01;19.30;99.90
42615;DHT22;28754;47.700;7.924;2022-07-23T02:34:48;19.30;99.90
42615;DHT22;28754;47.700;7.924;2022-07-23T02:37:37;19.30;99.90
42615;DHT22;28754;47.700;7.924;2022-07-23T02:40:23;19.40;99.90
42615;DHT22;28754;47.700;7.924;2022-07-23T02:43:10;19.50;99.90
42615;DHT22;28754;47.700;7.924;2022-07-23T02:45:58;19.40;99.90
42615;DHT22;28754;47.700;7.924;2022-07-23T02:48:45;19.40;99.90
42615;DHT22;28754;47.700;7.924;2022-07-23T02:51:31;19.40;99.90
42615;DHT22;28754;47.700;7.924;2022-07-23T02:54:23;19.50;99.90
42615;DHT22;28754;47.700;7.924;2022-07-23T02:57:11;19.50;99.90
42615;DHT22;28754;47.700;7.924;2022-07-23T02:59:58;19.50;99.90
42615;DHT22;28754;47.700;7.924;2022-07-23T03:02:45;19.40;99.90
42615;DHT22;28754;47.700;7.924;2022-07-23T03:05:32;19.40;99.90
42615;DHT22;28754;47.700;7.924;2022-07-23T03:12:46;19.70;99.90
42615;DHT22;28754;47.700;7.924;2022-07-23T03:15:33;19.70;99.90
42615;DHT22;28754;47.700;7.924;2022-07-23T03:18:20;19.50;99.90
42615;DHT22;28754;47.700;7.924;2022-07-23T03:21:07;19.10;99.90
42615;DHT22;28754;47.700;7.924;2022-07-23T03:23:54;18.80;99.90
42615;DHT22;28754;47.700;7.924;2022-07-23T03:26:41;18.60;99.90
42615;DHT22;28754;47.700;7.924;2022-07-23T03:29:28;18.40;99.90
42615;DHT22;28754;47.700;7.924;2022-07-23T03:32:14;18.40;99.90
42615;DHT22;28754;47.700;7.924;2022-07-23T03:35:01;18.40;99.90
42615;DHT22;28754;47.700;7.924;2022-07-23T03:37:48;18.20;99.90
42615;DHT22;28754;47.700;7.924;2022-07-23T03:40:35;18.20;99.90
42615;DHT22;28754;47.700;7.924;2022-07-23T03:43:21;18.20;99.90
42615;DHT22;28754;47.700;7.924;2022-07-23T03:46:11;18.40;99.90
42615;DHT22;28754;47.700;7.924;2022-07-23T03:48:58;18.40;99.90
42615;DHT22;28754;47.700;7.924;2022-07-23T03:51:44;18.60;99.90
42615;DHT22;28754;47.700;7.924;2022-07-23T03:54:31;18.50;99.90
42615;DHT22;28754;47.700;7.924;2022-07-23T03:57:18;18.40;99.90
42615;DHT22;28754;47.700;7.924;2022-07-23T04:00:06;18.40;99.90
42615;DHT22;28754;47.700;7.924;2022-07-23T04:03:00;18.30;99.90
42615;DHT22;28754;47.700;7.924;2022-07-23T04:05:47;18.20;99.90
42615;DHT22;28754;47.700;7.924;2022-07-23T04:08:35;18.10;99.90
42615;DHT22;28754;47.700;7.924;2022-07-23T04:11:21;18.00;99.90
42615;DHT22;28754;47.700;7.924;2022-07-23T04:14:08;18.00;99.90
42615;DHT22;28754;47.700;7.924;2022-07-23T04:16:55;18.00;99.90
42615;DHT22;28754;47.700;7.924;2022-07-23T04:19:42;18.10;99.90
42615;DHT22;28754;47.700;7.924;2022-07-23T04:22:30;18.10;99.90
42615;DHT22;28754;47.700;7.924;2022-07-23T04:25:17;18.20;99.90
42615;DHT22;28754;47.700;7.924;2022-07-23T04:28:04;18.20;99.90
42615;DHT22;28754;47.700;7.924;2022-07-23T04:30:52;18.20;99.90
42615;DHT22;28754;47.700;7.924;2022-07-23T04:33:38;18.20;99.90
42615;DHT22;28754;47.700;7.924;2022-07-23T04:36:27;18.20;99.90
42615;DHT22;28754;47.700;7.924;2022-07-23T04:39:14;18.20;99.90
42615;DHT22;28754;47.700;7.924;2022-07-23T04:42:02;18.30;99.90
42615;DHT22;28754;47.700;7.924;2022-07-23T04:44:50;18.30;99.90
42615;DHT22;28754;47.700;7.924;2022-07-23T04:47:37;18.40;99.90
42615;DHT22;28754;47.700;7.924;2022-07-23T04:50:24;18.50;99.90
42615;DHT22;28754;47.700;7.924;2022-07-23T04:53:14;18.70;99.90
42615;DHT22;28754;47.700;7.924;2022-07-23T04:56:01;18.80;99.90
42615;DHT22;28754;47.700;7.924;2022-07-23T04:58:50;18.90;99.90
42615;DHT22;28754;47.700;7.924;2022-07-23T05:01:38;19.10;99.90
42615;DHT22;28754;47.700;7.924;2022-07-23T05:04:24;19.00;99.90
42615;DHT22;28754;47.700;7.924;2022-07-23T05:07:11;19.00;99.90
42615;DHT22;28754;47.700;7.924;2022-07-23T05:09:58;19.00;99.90
42615;DHT22;28754;47.700;7.924;2022-07-23T05:12:45;19.10;99.90
42615;DHT22;28754;47.700;7.924;2022-07-23T05:15:31;19.10;99.90
42615;DHT22;28754;47.700;7.924;2022-07-23T05:18:18;19.10;99.90
42615;DHT22;28754;47.700;7.924;2022-07-23T05:21:05;19.10;99.90
42615;DHT22;28754;47.700;7.924;2022-07-23T05:23:53;19.20;99.90
42615;DHT22;28754;47.700;7.924;2022-07-23T05:26:40;19.30;99.90
42615;DHT22;28754;47.700;7.924;2022-07-23T05:29:27;19.30;99.90
42615;DHT22;28754;47.700;7.924;2022-07-23T05:32:13;19.40;99.90
42615;DHT22;28754;47.700;7.924;2022-07-23T05:35:07;19.50;99.90
42615;DHT22;28754;47.700;7.924;2022-07-23T05:38:00;19.60;99.90
42615;DHT22;28754;47.700;7.924;2022-07-23T05:40:47;19.70;99.90
42615;DHT22;28754;47.700;7.924;2022-07-23T05:43:34;19.70;99.90
42615;DHT22;28754;47.700;7.924;2022-07-23T05:46:27;20.00;99.90
42615;DHT22;28754;47.700;7.924;2022-07-23T05:49:18;20.00;99.90
42615;DHT22;28754;47.700;7.924;2022-07-23T05:52:37;20.00;99.90
42615;DHT22;28754;47.700;7.924;2022-07-23T05:55:53;20.10;99.90
42615;DHT22;28754;47.700;7.924;2022-07-23T05:58:40;20.20;99.90
42615;DHT22;28754;47.700;7.924;2022-07-23T06:01:27;20.20;99.90
42615;DHT22;28754;47.700;7.924;2022-07-23T06:04:22;20.20;99.90
42615;DHT22;28754;47.700;7.924;2022-07-23T06:07:25;20.30;99.90
42615;DHT22;28754;47.700;7.924;2022-07-23T06:10:12;20.30;99.90
42615;DHT22;28754;47.700;7.924;2022-07-23T06:12:59;20.30;99.90
42615;DHT22;28754;47.700;7.924;2022-07-23T06:15:46;20.20;99.90
42615;DHT22;28754;47.700;7.924;2022-07-23T06:18:33;20.30;99.90
42615;DHT22;28754;47.700;7.924;2022-07-23T06:21:20;20.30;99.90
42615;DHT22;28754;47.700;7.924;2022-07-23T06:24:06;20.30;99.90
42615;DHT22;28754;47.700;7.924;2022-07-23T06:26:53;20.40;99.90
42615;DHT22;28754;47.700;7.924;2022-07-23T06:29:40;20.40;99.90
42615;DHT22;28754;47.700;7.924;2022-07-23T06:32:27;20.60;99.90
42615;DHT22;28754;47.700;7.924;2022-07-23T06:35:14;20.50;99.90
42615;DHT22;28754;47.700;7.924;2022-07-23T06:38:02;20.40;99.90
42615;DHT22;28754;47.700;7.924;2022-07-23T06:40:48;20.50;99.90
42615;DHT22;28754;47.700;7.924;2022-07-23T06:43:35;20.70;99.90
42615;DHT22;28754;47.700;7.924;2022-07-23T06:46:22;20.90;99.90
42615;DHT22;28754;47.700;7.924;2022-07-23T06:49:10;21.30;99.90
42615;DHT22;28754;47.700;7.924;2022-07-23T06:51:59;21.50;99.90
42615;DHT22;28754;47.700;7.924;2022-07-23T06:54:46;21.40;99.90
42615;DHT22;28754;47.700;7.924;2022-07-23T06:57:32;21.40;99.90
42615;DHT22;28754;47.700;7.924;2022-07-23T07:00:19;21.50;99.90
42615;DHT22;28754;47.700;7.924;2022-07-23T07:03:07;21.60;99.90
42615;DHT22;28754;47.700;7.924;2022-07-23T07:05:54;21.20;99.90
42615;DHT22;28754;47.700;7.924;2022-07-23T07:08:41;20.80;99.90
42615;DHT22;28754;47.700;7.924;2022-07-23T07:11:29;20.40;99.90
42615;DHT22;28754;47.700;7.924;2022-07-23T07:14:16;20.40;99.90
42615;DHT22;28754;47.700;7.924;2022-07-23T07:17:02;20.20;99.90
42615;DHT22;28754;47.700;7.924;2022-07-23T07:19:49;20.30;99.90
42615;DHT22;28754;47.700;7.924;2022-07-23T07:22:35;20.40;99.90
42615;DHT22;28754;47.700;7.924;2022-07-23T07:25:22;20.20;99.90
42615;DHT22;28754;47.700;7.924;2022-07-23T07:28:09;20.50;99.90
42615;DHT22;28754;47.700;7.924;2022-07-23T07:30:56;20.60;99.90
42615;DHT22;28754;47.700;7.924;2022-07-23T07:33:43;21.00;99.90
42615;DHT22;28754;47.700;7.924;2022-07-23T07:36:29;21.30;99.90
42615;DHT22;28754;47.700;7.924;2022-07-23T07:39:16;21.90;99.90
42615;DHT22;28754;47.700;7.924;2022-07-23T07:42:03;22.30;99.90
42615;DHT22;28754;47.700;7.924;2022-07-23T07:44:52;22.70;99.90
42615;DHT22;28754;47.700;7.924;2022-07-23T07:52:36;22.10;99.90
42615;DHT22;28754;47.700;7.924;2022-07-23T07:55:25;23.30;99.90
42615;DHT22;28754;47.700;7.924;2022-07-23T07:58:13;22.70;99.90
42615;DHT22;28754;47.700;7.924;2022-07-23T08:50:21;23.30;99.90
42615;DHT22;28754;47.700;7.924;2022-07-23T09:23:18;23.00;99.90
42615;DHT22;28754;47.700;7.924;2022-07-23T09:49:42;23.80;99.90
42615;DHT22;28754;47.700;7.924;2022-07-23T10:02:56;23.30;99.90
42615;DHT22;28754;47.700;7.924;2022-07-23T10:07:03;23.70;99.90
42615;DHT22;28754;47.700;7.924;2022-07-23T10:11:05;24.00;99.90
42615;DHT22;28754;47.700;7.924;2022-07-23T10:24:21;22.90;99.90
42615;DHT22;28754;47.700;7.924;2022-07-23T10:31:31;24.20;99.90
42615;DHT22;28754;47.700;7.924;2022-07-23T10:34:54;24.90;99.90
42615;DHT22;28754;47.700;7.924;2022-07-23T10:37:51;24.50;99.90
42615;DHT22;28754;47.700;7.924;2022-07-23T10:52:19;24.10;99.90
42615;DHT22;28754;47.700;7.924;2022-07-23T10:57:57;25.30;99.90
42615;DHT22;28754;47.700;7.924;2022-07-23T11:00:44;25.80;99.90
42615;DHT22;28754;47.700;7.924;2022-07-23T11:03:35;26.10;99.90
42615;DHT22;28754;47.700;7.924;2022-07-23T11:06:23;25.50;99.90
42615;DHT22;28754;47.700;7.924;2022-07-23T11:09:39;25.50;99.90
42615;DHT22;28754;47.700;7.924;2022-07-23T11:15:14;24.70;99.90
42615;DHT22;28754;47.700;7.924;2022-07-23T11:18:01;24.60;99.90
42615;DHT22;28754;47.700;7.924;2022-07-23T11:20:48;24.60;99.90
42615;DHT22;28754;47.700;7.924;2022-07-23T11:26:49;26.40;99.90
42615;DHT22;28754;47.700;7.924;2022-07-23T11:29:38;26.30;99.90
42615;DHT22;28754;47.700;7.924;2022-07-23T11:32:29;26.30;99.90
42615;DHT22;28754;47.700;7.924;2022-07-23T11:41:03;26.10;99.90
42615;DHT22;28754;47.700;7.924;2022-07-23T11:43:50;26.30;99.90
42615;DHT22;28754;47.700;7.924;2022-07-23T11:46:36;26.30;99.90
42615;DHT22;28754;47.700;7.924;2022-07-23T11:49:24;26.00;99.90
42615;DHT22;28754;47.700;7.924;2022-07-23T11:52:13;26.00;99.90
42615;DHT22;28754;47.700;7.924;2022-07-23T11:55:07;26.00;99.90
42615;DHT22;28754;47.700;7.924;2022-07-23T11:57:56;26.00;99.90
42615;DHT22;28754;47.700;7.924;2022-07-23T12:00:43;26.70;99.90
42615;DHT22;28754;47.700;7.924;2022-07-23T12:03:29;26.20;99.90
42615;DHT22;28754;47.700;7.924;2022-07-23T12:06:16;26.30;99.90
42615;DHT22;28754;47.700;7.924;2022-07-23T12:09:03;26.70;99.90
42615;DHT22;28754;47.700;7.924;2022-07-23T12:12:00;26.90;99.90
42615;DHT22;28754;47.700;7.924;2022-07-23T12:14:57;27.90;99.90
42615;DHT22;28754;47.700;7.924;2022-07-23T12:17:46;27.30;99.90
42615;DHT22;28754;47.700;7.924;2022-07-23T12:20:36;27.80;99.90
42615;DHT22;28754;47.700;7.924;2022-07-23T12:23:25;28.20;99.90
42615;DHT22;28754;47.700;7.924;2022-07-23T12:26:13;28.20;99.90
42615;DHT22;28754;47.700;7.924;2022-07-23T12:29:00;27.90;99.90
42615;DHT22;28754;47.700;7.924;2022-07-23T12:31:46;27.70;99.90
42615;DHT22;28754;47.700;7.924;2022-07-23T12:34:33;28.30;99.90
42615;DHT22;28754;47.700;7.924;2022-07-23T12:37:33;28.50;99.90
42615;DHT22;28754;47.700;7.924;2022-07-23T12:40:27;28.80;99.90
42615;DHT22;28754;47.700;7.924;2022-07-23T12:43:20;27.80;99.90
42615;DHT22;28754;47.700;7.924;2022-07-23T12:46:17;27.60;99.90
42615;DHT22;28754;47.700;7.924;2022-07-23T12:49:06;26.90;99.90
42615;DHT22;28754;47.700;7.924;2022-07-23T12:51:53;26.90;99.90
42615;DHT22;28754;47.700;7.924;2022-07-23T12:54:39;27.40;99.90
42615;DHT22;28754;47.700;7.924;2022-07-23T12:57:45;27.00;99.90
42615;DHT22;28754;47.700;7.924;2022-07-23T13:04:02;26.00;99.90
42615;DHT22;28754;47.700;7.924;2022-07-23T13:06:53;25.80;99.90
42615;DHT22;28754;47.700;7.924;2022-07-23T13:09:42;26.00;99.90
42615;DHT22;28754;47.700;7.924;2022-07-23T13:12:28;26.30;99.90
42615;DHT22;28754;47.700;7.924;2022-07-23T13:15:15;26.60;99.90
42615;DHT22;28754;47.700;7.924;2022-07-23T13:18:02;26.60;99.90
42615;DHT22;28754;47.700;7.924;2022-07-23T13:20:49;27.10;99.90
42615;DHT22;28754;47.700;7.924;2022-07-23T13:23:36;27.10;99.90
42615;DHT22;28754;47.700;7.924;2022-07-23T13:26:23;27.00;99.90
42615;DHT22;28754;47.700;7.924;2022-07-23T13:29:11;27.10;99.90
42615;DHT22;28754;47.700;7.924;2022-07-23T13:31:57;27.60;99.90
42615;DHT22;28754;47.700;7.924;2022-07-23T13:34:44;28.00;99.90
42615;DHT22;28754;47.700;7.924;2022-07-23T13:37:31;28.00;99.90
42615;DHT22;28754;47.700;7.924;2022-07-23T13:40:17;27.90;99.90
42615;DHT22;28754;47.700;7.924;2022-07-23T13:43:05;27.80;99.90
42615;DHT22;28754;47.700;7.924;2022-07-23T13:45:53;27.70;99.90
42615;DHT22;28754;47.700;7.924;2022-07-23T13:48:40;28.00;99.90
42615;DHT22;28754;47.700;7.924;2022-07-23T13:51:26;28.20;99.90
42615;DHT22;28754;47.700;7.924;2022-07-23T13:54:13;27.90;99.90
42615;DHT22;28754;47.700;7.924;2022-07-23T13:57:00;28.10;99.90
42615;DHT22;28754;47.700;7.924;2022-07-23T13:59:46;28.50;99.90
42615;DHT22;28754;47.700;7.924;2022-07-23T14:02:34;28.90;99.90
42615;DHT22;28754;47.700;7.924;2022-07-23T14:05:21;28.80;99.90
42615;DHT22;28754;47.700;7.924;2022-07-23T14:08:08;28.30;99.90
42615;DHT22;28754;47.700;7.924;2022-07-23T14:10:56;27.90;99.90
42615;DHT22;28754;47.700;7.924;2022-07-23T14:13:43;26.70;99.90
42615;DHT22;28754;47.700;7.924;2022-07-23T14:16:30;26.20;99.90
42615;DHT22;28754;47.700;7.924;2022-07-23T14:19:17;26.90;99.90
42615;DHT22;28754;47.700;7.924;2022-07-23T14:22:03;27.50;99.90
42615;DHT22;28754;47.700;7.924;2022-07-23T14:24:50;28.00;99.90
42615;DHT22;28754;47.700;7.924;2022-07-23T14:27:37;28.10;99.90
42615;DHT22;28754;47.700;7.924;2022-07-23T14:30:25;28.60;99.90
42615;DHT22;28754;47.700;7.924;2022-07-23T14:33:12;29.00;99.90
42615;DHT22;28754;47.700;7.924;2022-07-23T14:36:00;29.30;99.90
42615;DHT22;28754;47.700;7.924;2022-07-23T14:38:48;29.40;99.90
42615;DHT22;28754;47.700;7.924;2022-07-23T14:41:35;29.30;99.90
42615;DHT22;28754;47.700;7.924;2022-07-23T14:44:22;28.90;99.90
42615;DHT22;28754;47.700;7.924;2022-07-23T14:52:56;28.50;99.90
42615;DHT22;28754;47.700;7.924;2022-07-23T15:01:31;29.30;99.90
42615;DHT22;28754;47.700;7.924;2022-07-23T15:19:20;27.20;99.90
42615;DHT22;28754;47.700;7.924;2022-07-23T15:23:27;27.00;99.90
42615;DHT22;28754;47.700;7.924;2022-07-23T15:34:21;27.70;99.90
42615;DHT22;28754;47.700;7.924;2022-07-23T15:37:07;28.00;99.90
42615;DHT22;28754;47.700;7.924;2022-07-23T15:39:54;28.00;99.90
42615;DHT22;28754;47.700;7.924;2022-07-23T15:42:41;28.00;99.90
42615;DHT22;28754;47.700;7.924;2022-07-23T15:45:30;27.60;99.90
42615;DHT22;28754;47.700;7.924;2022-07-23T15:48:19;27.20;99.90
42615;DHT22;28754;47.700;7.924;2022-07-23T15:51:06;27.10;99.90
42615;DHT22;28754;47.700;7.924;2022-07-23T15:53:53;27.50;99.90
42615;DHT22;28754;47.700;7.924;2022-07-23T15:56:39;27.50;99.90
42615;DHT22;28754;47.700;7.924;2022-07-23T15:59:26;26.90;99.90
42615;DHT22;28754;47.700;7.924;2022-07-23T16:02:13;27.30;99.90
42615;DHT22;28754;47.700;7.924;2022-07-23T16:04:59;27.40;99.90
42615;DHT22;28754;47.700;7.924;2022-07-23T16:07:46;27.20;99.90
42615;DHT22;28754;47.700;7.924;2022-07-23T16:10:33;27.30;99.90
42615;DHT22;28754;47.700;7.924;2022-07-23T16:13:20;26.70;99.90
42615;DHT22;28754;47.700;7.924;2022-07-23T16:16:07;27.00;99.90
42615;DHT22;28754;47.700;7.924;2022-07-23T16:18:55;27.30;99.90
42615;DHT22;28754;47.700;7.924;2022-07-23T16:21:43;27.60;99.90
42615;DHT22;28754;47.700;7.924;2022-07-23T16:24:30;27.40;99.90
42615;DHT22;28754;47.700;7.924;2022-07-23T16:27:17;27.00;99.90
42615;DHT22;28754;47.700;7.924;2022-07-23T16:30:06;27.10;99.90
42615;DHT22;28754;47.700;7.924;2022-07-23T16:32:54;27.40;99.90
42615;DHT22;28754;47.700;7.924;2022-07-23T16:35:43;27.30;99.90
42615;DHT22;28754;47.700;7.924;2022-07-23T16:38:30;27.10;99.90
42615;DHT22;28754;47.700;7.924;2022-07-23T16:41:16;27.30;99.90
42615;DHT22;28754;47.700;7.924;2022-07-23T16:44:03;26.90;99.90
42615;DHT22;28754;47.700;7.924;2022-07-23T16:46:50;26.70;99.90
42615;DHT22;28754;47.700;7.924;2022-07-23T16:49:37;26.60;99.90
42615;DHT22;28754;47.700;7.924;2022-07-23T16:52:24;26.50;99.90
42615;DHT22;28754;47.700;7.924;2022-07-23T16:55:11;26.30;99.90
42615;DHT22;28754;47.700;7.924;2022-07-23T16:57:58;26.60;99.90
42615;DHT22;28754;47.700;7.924;2022-07-23T17:00:45;26.70;99.90
42615;DHT22;28754;47.700;7.924;2022-07-23T17:03:32;26.70;99.90
42615;DHT22;28754;47.700;7.924;2022-07-23T17:06:19;26.60;99.90
42615;DHT22;28754;47.700;7.924;2022-07-23T17:09:06;26.80;99.90
42615;DHT22;28754;47.700;7.924;2022-07-23T17:11:53;26.50;99.90
42615;DHT22;28754;47.700;7.924;2022-07-23T17:14:40;26.50;99.90
42615;DHT22;28754;47.700;7.924;2022-07-23T17:17:28;26.50;99.90
42615;DHT22;28754;47.700;7.924;2022-07-23T17:20:15;26.50;99.90
42615;DHT22;28754;47.700;7.924;2022-07-23T17:23:03;26.40;99.90
42615;DHT22;28754;47.700;7.924;2022-07-23T17:25:52;26.20;99.90
42615;DHT22;28754;47.700;7.924;2022-07-23T17:28:38;26.10;99.90
42615;DHT22;28754;47.700;7.924;2022-07-23T17:31:26;25.60;99.90
42615;DHT22;28754;47.700;7.924;2022-07-23T17:34:14;25.70;99.90
42615;DHT22;28754;47.700;7.924;2022-07-23T17:37:01;25.90;99.90
42615;DHT22;28754;47.700;7.924;2022-07-23T17:39:49;26.00;99.90
42615;DHT22;28754;47.700;7.924;2022-07-23T17:42:39;26.00;99.90
42615;DHT22;28754;47.700;7.924;2022-07-23T17:45:26;26.10;99.90
42615;DHT22;28754;47.700;7.924;2022-07-23T17:48:13;26.10;99.90
42615;DHT22;28754;47.700;7.924;2022-07-23T17:51:01;25.70;99.90
42615;DHT22;28754;47.700;7.924;2022-07-23T17:53:49;25.80;99.90
42615;DHT22;28754;47.700;7.924;2022-07-23T17:56:37;25.30;99.90
42615;DHT22;28754;47.700;7.924;2022-07-23T17:59:25;25.50;99.90
42615;DHT22;28754;47.700;7.924;2022-07-23T18:02:12;25.50;99.90
42615;DHT22;28754;47.700;7.924;2022-07-23T18:05:00;25.50;99.90
42615;DHT22;28754;47.700;7.924;2022-07-23T18:07:48;25.60;99.90
42615;DHT22;28754;47.700;7.924;2022-07-23T18:10:36;25.60;99.90
42615;DHT22;28754;47.700;7.924;2022-07-23T18:13:23;25.60;99.90
42615;DHT22;28754;47.700;7.924;2022-07-23T18:16:10;25.40;99.90
42615;DHT22;28754;47.700;7.924;2022-07-23T18:18:58;24.90;99.90
42615;DHT22;28754;47.700;7.924;2022-07-23T18:21:45;24.80;99.90
42615;DHT22;28754;47.700;7.924;2022-07-23T18:24:33;24.80;99.90
42615;DHT22;28754;47.700;7.924;2022-07-23T18:27:20;24.80;99.90
42615;DHT22;28754;47.700;7.924;2022-07-23T18:30:08;24.80;99.90
42615;DHT22;28754;47.700;7.924;2022-07-23T18:32:55;24.80;99.90
42615;DHT22;28754;47.700;7.924;2022-07-23T18:35:43;24.80;99.90
42615;DHT22;28754;47.700;7.924;2022-07-23T18:38:31;24.80;99.90
42615;DHT22;28754;47.700;7.924;2022-07-23T18:41:18;24.60;99.90
42615;DHT22;28754;47.700;7.924;2022-07-23T18:44:05;24.70;99.90
42615;DHT22;28754;47.700;7.924;2022-07-23T18:46:52;24.60;99.90
42615;DHT22;28754;47.700;7.924;2022-07-23T18:49:39;24.60;99.90
42615;DHT22;28754;47.700;7.924;2022-07-23T18:52:27;24.60;99.90
42615;DHT22;28754;47.700;7.924;2022-07-23T18:55:14;24.50;99.90
42615;DHT22;28754;47.700;7.924;2022-07-23T18:58:02;24.60;99.90
42615;DHT22;28754;47.700;7.924;2022-07-23T19:00:49;24.60;99.90
42615;DHT22;28754;47.700;7.924;2022-07-23T19:03:36;24.40;99.90
42615;DHT22;28754;47.700;7.924;2022-07-23T19:06:24;24.40;99.90
42615;DHT22;28754;47.700;7.924;2022-07-23T19:09:12;24.30;99.90
42615;DHT22;28754;47.700;7.924;2022-07-23T19:12:00;24.20;99.90
42615;DHT22;28754;47.700;7.924;2022-07-23T19:14:47;24.10;99.90
42615;DHT22;28754;47.700;7.924;2022-07-23T19:17:35;23.90;99.90
42615;DHT22;28754;47.700;7.924;2022-07-23T19:20:23;23.90;99.90
42615;DHT22;28754;47.700;7.924;2022-07-23T19:23:10;23.80;99.90
42615;DHT22;28754;47.700;7.924;2022-07-23T19:25:57;23.70;99.90
42615;DHT22;28754;47.700;7.924;2022-07-23T19:28:45;23.60;99.90
42615;DHT22;28754;47.700;7.924;2022-07-23T19:31:33;23.60;99.90
42615;DHT22;28754;47.700;7.924;2022-07-23T19:34:20;23.40;99.90
42615;DHT22;28754;47.700;7.924;2022-07-23T19:37:08;23.30;99.90
42615;DHT22;28754;47.700;7.924;2022-07-23T19:39:58;23.20;99.90
42615;DHT22;28754;47.700;7.924;2022-07-23T19:42:45;23.30;99.90
42615;DHT22;28754;47.700;7.924;2022-07-23T19:45:32;23.20;99.90
42615;DHT22;28754;47.700;7.924;2022-07-23T19:48:20;23.20;99.90
42615;DHT22;28754;47.700;7.924;2022-07-23T19:51:08;23.10;99.90
42615;DHT22;28754;47.700;7.924;2022-07-23T19:53:56;23.10;99.90
42615;DHT22;28754;47.700;7.924;2022-07-23T19:56:44;23.00;99.90
42615;DHT22;28754;47.700;7.924;2022-07-23T19:59:31;23.00;99.90
42615;DHT22;28754;47.700;7.924;2022-07-23T20:02:18;22.90;99.90
42615;DHT22;28754;47.700;7.924;2022-07-23T20:05:07;22.80;99.90
42615;DHT22;28754;47.700;7.924;2022-07-23T20:07:56;22.80;99.90
42615;DHT22;28754;47.700;7.924;2022-07-23T20:10:45;22.80;99.90
42615;DHT22;28754;47.700;7.924;2022-07-23T20:13:35;22.80;99.90
42615;DHT22;28754;47.700;7.924;2022-07-23T20:16:22;22.70;99.90
42615;DHT22;28754;47.700;7.924;2022-07-23T20:19:09;22.70;99.90
42615;DHT22;28754;47.700;7.924;2022-07-23T20:21:55;22.60;99.90
42615;DHT22;28754;47.700;7.924;2022-07-23T20:24:42;22.60;99.90
42615;DHT22;28754;47.700;7.924;2022-07-23T20:27:29;22.60;99.90
42615;DHT22;28754;47.700;7.924;2022-07-23T20:30:16;22.60;99.90
42615;DHT22;28754;47.700;7.924;2022-07-23T20:33:03;22.50;99.90
42615;DHT22;28754;47.700;7.924;2022-07-23T20:35:50;22.40;99.90
42615;DHT22;28754;47.700;7.924;2022-07-23T20:38:36;22.40;99.90
42615;DHT22;28754;47.700;7.924;2022-07-23T20:41:23;22.40;99.90
42615;DHT22;28754;47.700;7.924;2022-07-23T20:44:10;22.40;99.90
42615;DHT22;28754;47.700;7.924;2022-07-23T20:46:59;22.40;99.90
42615;DHT22;28754;47.700;7.924;2022-07-23T20:49:46;22.40;99.90
42615;DHT22;28754;47.700;7.924;2022-07-23T20:52:32;22.30;99.90
42615;DHT22;28754;47.700;7.924;2022-07-23T20:55:19;22.10;99.90
42615;DHT22;28754;47.700;7.924;2022-07-23T20:58:06;22.10;99.90
42615;DHT22;28754;47.700;7.924;2022-07-23T21:00:53;22.10;99.90
42615;DHT22;28754;47.700;7.924;2022-07-23T21:03:40;22.10;99.90
42615;DHT22;28754;47.700;7.924;2022-07-23T21:06:26;22.00;99.90